»·PEaware :: N5388T KBUR-KLAS

N5388T :: KBUR-KLAS

FLIGHT INFORMATION

Flight Status: Arrived
Operator: Privately registered:
United States
More flights under this callsign
Pilot: Peter K. (32806)
Aircraft: BEECH AIRCRAFT BARON
(BE58)
More flights by this aircraft type
Origin: KBUR Bob Hope-Burbank
United States
Destination: KLAS McCarran Intl
United States
More flights between these airports :: More routes between these airports
Route: VNY3 DAG CRESO4
File this flight plan on PilotEdge
Remarks:
Altitude:
(Current/Filed)
11,000ft
Speed:
(Current/Filed)
180kts
Departed: 09-Jan-21 08:33 AM
Arrived: 09-Jan-21 09:56 AM
Distance/Time
Traveled:
193nm/1:23
Distance/Time
To Go:
Arrived

Flight Plot

Page will automatically refresh every two minutes.

Flight plan parsing failed; only flown route is shown


Map Options




Map Legend


Flown Route
Filed Route
Departure Airport
Arrival Airport
Navaid (VOR, NDB)
Fix

Horizontal Profiles

Position Reports

Time Latitude Longitude Heading Altitude Ground
Speed
09-Jan-21 07:41 34.200210 -118.358864 280 721ft 0kts
09-Jan-21 07:42 34.200210 -118.358864 280 721ft 0kts
09-Jan-21 07:43 34.200210 -118.358864 280 721ft 0kts
09-Jan-21 07:44 34.200210 -118.358864 280 721ft 0kts
09-Jan-21 07:45 34.200210 -118.358864 280 721ft 0kts
09-Jan-21 07:46 34.200210 -118.358864 280 721ft 0kts
09-Jan-21 07:47 34.200210 -118.358864 280 721ft 0kts
09-Jan-21 07:48 34.200210 -118.358864 280 721ft 0kts
09-Jan-21 07:49 34.200210 -118.358864 280 721ft 0kts
09-Jan-21 07:50 34.200210 -118.358864 280 721ft 0kts
09-Jan-21 07:51 34.200210 -118.358864 280 721ft 0kts
09-Jan-21 07:52 34.200210 -118.358864 280 721ft 0kts
09-Jan-21 07:53 34.200210 -118.358864 280 721ft 0kts
09-Jan-21 07:54 34.200210 -118.358864 280 721ft 0kts
09-Jan-21 07:55 34.200210 -118.358864 280 721ft 0kts
09-Jan-21 07:56 34.200210 -118.358864 280 721ft 0kts
09-Jan-21 07:57 34.200210 -118.358864 280 721ft 0kts
09-Jan-21 07:58 34.200210 -118.358864 280 721ft 0kts
09-Jan-21 07:59 34.200210 -118.358864 280 721ft 0kts
09-Jan-21 08:00 34.200210 -118.358864 280 721ft 0kts
09-Jan-21 08:01 34.200210 -118.358864 280 721ft 0kts
09-Jan-21 08:02 34.200210 -118.358864 280 721ft 0kts
09-Jan-21 08:03 34.200210 -118.358864 280 721ft 0kts
09-Jan-21 08:04 34.200210 -118.358864 280 721ft 0kts
09-Jan-21 08:05 34.200210 -118.358864 280 721ft 0kts
09-Jan-21 08:06 34.200210 -118.358864 280 721ft 0kts
09-Jan-21 08:07 34.200210 -118.358864 280 721ft 0kts
09-Jan-21 08:08 34.200210 -118.358864 280 721ft 0kts
09-Jan-21 08:09 34.200210 -118.358864 280 721ft 0kts
09-Jan-21 08:10 34.200210 -118.358864 280 721ft 0kts
09-Jan-21 08:11 34.200210 -118.358864 280 721ft 0kts
09-Jan-21 08:12 34.200210 -118.358864 280 721ft 0kts
09-Jan-21 08:13 34.200210 -118.358864 280 721ft 0kts
09-Jan-21 08:14 34.200210 -118.358864 280 721ft 0kts
09-Jan-21 08:15 34.200210 -118.358864 280 721ft 0kts
09-Jan-21 08:16 34.200210 -118.358864 280 721ft 0kts
09-Jan-21 08:17 34.200210 -118.358864 280 721ft 0kts
09-Jan-21 08:18 34.200210 -118.358864 280 721ft 0kts
09-Jan-21 08:19 34.200210 -118.358864 280 721ft 0kts
09-Jan-21 08:20 34.200210 -118.358864 280 721ft 0kts
09-Jan-21 08:21 34.200210 -118.358864 280 721ft 0kts
09-Jan-21 08:22 34.200210 -118.358864 280 721ft 0kts
09-Jan-21 08:23 34.200210 -118.358864 280 721ft 0kts
09-Jan-21 08:24 34.200210 -118.358864 280 721ft 0kts
09-Jan-21 08:25 34.200024 -118.359020 192 721ft 4kts
09-Jan-21 08:26 34.198914 -118.360485 254 719ft 9kts
09-Jan-21 08:27 34.198939 -118.362828 271 722ft 6kts
09-Jan-21 08:28 34.199094 -118.365307 270 725ft 8kts
09-Jan-21 08:29 34.199014 -118.368864 227 725ft 10kts
09-Jan-21 08:30 34.198767 -118.369002 178 725ft 0kts
09-Jan-21 08:31 34.198767 -118.369002 178 725ft 0kts
09-Jan-21 08:32 34.197770 -118.358918 93 779ft 113kts
09-Jan-21 08:33 34.177260 -118.340493 222 2328ft 117kts
09-Jan-21 08:34 34.152958 -118.364820 226 3954ft 114kts
09-Jan-21 08:35 34.160829 -118.385975 350 5382ft 99kts
09-Jan-21 08:36 34.188926 -118.387775 351 6653ft 102kts
09-Jan-21 08:37 34.215808 -118.394138 337 7835ft 98kts
09-Jan-21 08:38 34.241599 -118.404330 337 8891ft 99kts
09-Jan-21 08:39 34.267819 -118.414736 337 9857ft 99kts
09-Jan-21 08:40 34.293535 -118.424951 337 10753ft 97kts
09-Jan-21 08:41 34.323447 -118.436855 338 11042ft 127kts
09-Jan-21 08:42 34.360005 -118.451363 338 10986ft 146kts
09-Jan-21 08:43 34.399751 -118.463251 18 10900ft 160kts
09-Jan-21 08:44 34.423847 -118.414817 54 11087ft 167kts
09-Jan-21 08:45 34.444876 -118.362251 44 10993ft 169kts
09-Jan-21 08:46 34.473345 -118.316706 43 11025ft 169kts
09-Jan-21 08:47 34.501724 -118.271471 43 11028ft 171kts
09-Jan-21 08:48 34.530826 -118.224967 43 10950ft 170kts
09-Jan-21 08:49 34.559379 -118.179303 43 10962ft 169kts
09-Jan-21 08:50 34.588567 -118.132577 43 10996ft 177kts
09-Jan-21 08:51 34.618609 -118.084377 44 10960ft 180kts
09-Jan-21 08:52 34.635390 -118.025348 73 10905ft 196kts
09-Jan-21 08:53 34.642718 -117.960656 74 10951ft 194kts
09-Jan-21 08:55 34.649796 -117.895968 74 10958ft 193kts
09-Jan-21 08:56 34.656807 -117.831415 74 10956ft 192kts
09-Jan-21 08:57 34.663990 -117.767229 68 10947ft 189kts
09-Jan-21 08:58 34.678869 -117.706462 64 10958ft 187kts
09-Jan-21 08:59 34.694313 -117.646117 64 10959ft 187kts
09-Jan-21 09:00 34.709741 -117.585841 64 10960ft 187kts
09-Jan-21 09:01 34.725200 -117.525306 64 10960ft 187kts
09-Jan-21 09:02 34.740617 -117.464801 64 10960ft 187kts
09-Jan-21 09:03 34.756006 -117.404269 64 10961ft 187kts
09-Jan-21 09:04 34.771358 -117.343746 64 10961ft 187kts
09-Jan-21 09:05 34.786642 -117.283350 64 10977ft 186kts
09-Jan-21 09:06 34.801915 -117.222860 64 10980ft 187kts
09-Jan-21 09:07 34.817165 -117.162311 64 10982ft 187kts
09-Jan-21 09:08 34.832381 -117.101775 64 10983ft 187kts
09-Jan-21 09:09 34.847649 -117.040908 65 10985ft 188kts
09-Jan-21 09:09 34.860341 -116.990178 65 10986ft 188kts
09-Jan-21 09:11 34.878142 -116.918851 65 10987ft 189kts
09-Jan-21 09:12 34.893442 -116.857320 65 10987ft 189kts
09-Jan-21 09:12 34.906137 -116.806168 65 10986ft 189kts
09-Jan-21 09:13 34.921427 -116.744463 65 10958ft 190kts
09-Jan-21 09:14 34.936648 -116.682893 64 10957ft 189kts
09-Jan-21 09:15 34.951802 -116.621453 64 10957ft 189kts
09-Jan-21 09:16 34.969813 -116.562313 52 10973ft 182kts
09-Jan-21 09:17 34.993899 -116.507568 51 10950ft 182kts
09-Jan-21 09:18 35.018042 -116.453160 50 10937ft 182kts
09-Jan-21 09:19 35.042134 -116.398829 49 10926ft 182kts
09-Jan-21 09:20 35.066202 -116.344541 49 10936ft 181kts
09-Jan-21 09:21 35.090164 -116.290383 49 10925ft 181kts
09-Jan-21 09:22 35.114053 -116.236288 49 10931ft 181kts
09-Jan-21 09:23 35.137938 -116.182112 49 10935ft 181kts
09-Jan-21 09:24 35.161810 -116.127859 49 10935ft 181kts
09-Jan-21 09:25 35.185664 -116.073569 49 10934ft 181kts
09-Jan-21 09:26 35.209543 -116.019141 49 10937ft 181kts
09-Jan-21 09:27 35.233363 -115.964761 49 10931ft 181kts
09-Jan-21 09:28 35.257166 -115.910327 49 10936ft 181kts
09-Jan-21 09:29 35.280850 -115.856091 50 10946ft 180kts
09-Jan-21 09:30 35.304378 -115.802108 50 10955ft 179kts
09-Jan-21 09:31 35.333926 -115.756355 36 10961ft 169kts
09-Jan-21 09:32 35.365544 -115.714067 36 10967ft 168kts
09-Jan-21 09:33 35.397130 -115.671896 36 10979ft 167kts
09-Jan-21 09:34 35.428560 -115.629905 36 10981ft 167kts
09-Jan-21 09:35 35.460001 -115.587856 36 10981ft 167kts
09-Jan-21 09:36 35.491424 -115.545778 36 10980ft 167kts
09-Jan-21 09:37 35.521493 -115.505398 35 10497ft 151kts
09-Jan-21 09:38 35.551664 -115.475841 22 9522ft 143kts
09-Jan-21 09:39 35.582042 -115.454275 21 8388ft 127kts
09-Jan-21 09:40 35.613785 -115.433642 21 7990ft 127kts
09-Jan-21 09:41 35.646539 -115.412657 21 8088ft 138kts
09-Jan-21 09:42 35.681335 -115.391232 21 6680ft 140kts
09-Jan-21 09:43 35.713454 -115.373045 21 5895ft 96kts
09-Jan-21 09:44 35.744895 -115.355481 21 6041ft 150kts
09-Jan-21 09:45 35.784965 -115.333386 22 5719ft 160kts
09-Jan-21 09:46 35.823527 -115.312520 22 5493ft 143kts
09-Jan-21 09:47 35.857957 -115.293805 22 5454ft 123kts
09-Jan-21 09:48 35.887753 -115.277460 22 5490ft 114kts
09-Jan-21 09:49 35.919069 -115.259686 23 5558ft 135kts
09-Jan-21 09:50 35.951354 -115.240927 23 5287ft 117kts
09-Jan-21 09:51 35.982193 -115.223477 23 4599ft 124kts
09-Jan-21 09:52 36.012810 -115.203947 28 3695ft 125kts
09-Jan-21 09:53 36.043972 -115.188273 22 3030ft 117kts
09-Jan-21 09:54 36.073941 -115.171182 23 2262ft 106kts
09-Jan-21 09:55 36.089056 -115.162847 326 2128ft 28kts
09-Jan-21 09:56 36.089422 -115.163572 293 2130ft 0kts
09-Jan-21 09:57 36.089422 -115.163572 293 2130ft 0kts
09-Jan-21 09:58 36.087537 -115.165798 204 2140ft 19kts
09-Jan-21 09:59 36.083807 -115.169564 230 2162ft 12kts

Navigation Log

Ident Type
Flight plan parsing failed, navigation log unavailable